sensor_id;sensor_type;location;lat;lon;timestamp;temperature;humidity
18126;DHT22;53956;52.442;13.284;2023-04-24T00:00:03;16.10;99.20
18126;DHT22;53956;52.442;13.284;2023-04-24T00:02:33;16.40;98.90
18126;DHT22;53956;52.442;13.284;2023-04-24T00:04:59;16.40;99.10
18126;DHT22;53956;52.442;13.284;2023-04-24T00:07:28;16.20;99.70
18126;DHT22;53956;52.442;13.284;2023-04-24T00:09:55;16.40;99.00
18126;DHT22;53956;52.442;13.284;2023-04-24T00:12:21;16.30;99.40
18126;DHT22;53956;52.442;13.284;2023-04-24T00:14:48;16.50;99.20
18126;DHT22;53956;52.442;13.284;2023-04-24T00:17:15;16.40;99.40
18126;DHT22;53956;52.442;13.284;2023-04-24T00:19:46;16.50;99.60
18126;DHT22;53956;52.442;13.284;2023-04-24T00:22:13;16.50;99.60
18126;DHT22;53956;52.442;13.284;2023-04-24T00:24:40;16.50;99.30
18126;DHT22;53956;52.442;13.284;2023-04-24T00:27:07;16.30;99.90
18126;DHT22;53956;52.442;13.284;2023-04-24T00:29:34;16.40;99.90
18126;DHT22;53956;52.442;13.284;2023-04-24T00:32:00;16.50;99.90
18126;DHT22;53956;52.442;13.284;2023-04-24T00:34:27;16.60;99.40
18126;DHT22;53956;52.442;13.284;2023-04-24T00:36:55;16.40;99.80
18126;DHT22;53956;52.442;13.284;2023-04-24T00:39:22;16.20;99.90
18126;DHT22;53956;52.442;13.284;2023-04-24T00:41:49;16.30;99.90
18126;DHT22;53956;52.442;13.284;2023-04-24T00:44:16;15.90;99.90
18126;DHT22;53956;52.442;13.284;2023-04-24T00:46:43;15.90;99.90
18126;DHT22;53956;52.442;13.284;2023-04-24T00:49:09;15.80;99.90
18126;DHT22;53956;52.442;13.284;2023-04-24T00:51:38;16.00;99.90
18126;DHT22;53956;52.442;13.284;2023-04-24T00:54:07;16.00;99.90
18126;DHT22;53956;52.442;13.284;2023-04-24T00:56:34;16.20;99.90
18126;DHT22;53956;52.442;13.284;2023-04-24T00:59:01;16.20;99.90
18126;DHT22;53956;52.442;13.284;2023-04-24T01:01:28;16.40;99.90
18126;DHT22;53956;52.442;13.284;2023-04-24T01:03:56;16.30;99.90
18126;DHT22;53956;52.442;13.284;2023-04-24T01:06:26;16.30;99.90
18126;DHT22;53956;52.442;13.284;2023-04-24T01:08:54;16.10;99.90
18126;DHT22;53956;52.442;13.284;2023-04-24T01:11:23;16.20;99.90
18126;DHT22;53956;52.442;13.284;2023-04-24T01:13:50;16.30;99.90
18126;DHT22;53956;52.442;13.284;2023-04-24T01:16:17;16.20;99.90
18126;DHT22;53956;52.442;13.284;2023-04-24T01:18:46;16.20;99.90
18126;DHT22;53956;52.442;13.284;2023-04-24T01:21:14;15.80;99.90
18126;DHT22;53956;52.442;13.284;2023-04-24T01:23:43;15.80;99.90
18126;DHT22;53956;52.442;13.284;2023-04-24T01:26:10;15.90;99.90
18126;DHT22;53956;52.442;13.284;2023-04-24T01:28:37;15.70;99.90
18126;DHT22;53956;52.442;13.284;2023-04-24T01:31:05;15.90;99.90
18126;DHT22;53956;52.442;13.284;2023-04-24T01:33:32;15.70;99.90
18126;DHT22;53956;52.442;13.284;2023-04-24T01:35:59;15.70;99.90
18126;DHT22;53956;52.442;13.284;2023-04-24T01:38:26;15.70;99.90
18126;DHT22;53956;52.442;13.284;2023-04-24T01:40:54;15.70;99.90
18126;DHT22;53956;52.442;13.284;2023-04-24T01:43:21;15.70;99.90
18126;DHT22;53956;52.442;13.284;2023-04-24T01:45:48;15.60;99.90
18126;DHT22;53956;52.442;13.284;2023-04-24T01:48:14;15.80;99.90
18126;DHT22;53956;52.442;13.284;2023-04-24T01:50:41;15.70;99.90
18126;DHT22;53956;52.442;13.284;2023-04-24T01:53:11;15.70;99.90
18126;DHT22;53956;52.442;13.284;2023-04-24T01:55:37;15.70;99.90
18126;DHT22;53956;52.442;13.284;2023-04-24T01:58:06;15.50;99.90
18126;DHT22;53956;52.442;13.284;2023-04-24T02:00:33;15.70;99.90
18126;DHT22;53956;52.442;13.284;2023-04-24T02:03:00;15.60;99.90
18126;DHT22;53956;52.442;13.284;2023-04-24T02:05:27;15.80;99.90
18126;DHT22;53956;52.442;13.284;2023-04-24T02:07:54;15.80;99.90
18126;DHT22;53956;52.442;13.284;2023-04-24T02:10:21;15.90;99.90
18126;DHT22;53956;52.442;13.284;2023-04-24T02:12:48;15.90;99.90
18126;DHT22;53956;52.442;13.284;2023-04-24T02:15:16;16.00;99.90
18126;DHT22;53956;52.442;13.284;2023-04-24T02:17:43;15.90;99.90
18126;DHT22;53956;52.442;13.284;2023-04-24T02:20:10;16.00;99.90
18126;DHT22;53956;52.442;13.284;2023-04-24T02:22:37;16.00;99.90
18126;DHT22;53956;52.442;13.284;2023-04-24T02:25:05;15.90;99.90
18126;DHT22;53956;52.442;13.284;2023-04-24T02:27:32;16.00;99.90
18126;DHT22;53956;52.442;13.284;2023-04-24T02:29:58;16.00;99.90
18126;DHT22;53956;52.442;13.284;2023-04-24T02:32:27;16.10;99.90
18126;DHT22;53956;52.442;13.284;2023-04-24T02:34:53;16.00;99.90
18126;DHT22;53956;52.442;13.284;2023-04-24T02:37:20;16.00;99.90
18126;DHT22;53956;52.442;13.284;2023-04-24T02:39:46;16.00;99.90
18126;DHT22;53956;52.442;13.284;2023-04-24T02:42:13;16.10;99.90
18126;DHT22;53956;52.442;13.284;2023-04-24T02:44:41;16.10;99.90
18126;DHT22;53956;52.442;13.284;2023-04-24T02:47:08;16.00;99.90
18126;DHT22;53956;52.442;13.284;2023-04-24T02:49:36;16.00;99.90
18126;DHT22;53956;52.442;13.284;2023-04-24T02:52:03;16.10;99.90
18126;DHT22;53956;52.442;13.284;2023-04-24T02:54:29;16.20;99.90
18126;DHT22;53956;52.442;13.284;2023-04-24T02:56:56;16.00;99.90
18126;DHT22;53956;52.442;13.284;2023-04-24T02:59:23;16.10;99.90
18126;DHT22;53956;52.442;13.284;2023-04-24T03:01:49;16.00;99.90
18126;DHT22;53956;52.442;13.284;2023-04-24T03:04:16;16.10;99.90
18126;DHT22;53956;52.442;13.284;2023-04-24T03:06:47;16.20;99.90
18126;DHT22;53956;52.442;13.284;2023-04-24T03:09:13;16.30;99.90
18126;DHT22;53956;52.442;13.284;2023-04-24T03:11:40;16.30;99.90
18126;DHT22;53956;52.442;13.284;2023-04-24T03:14:07;16.30;99.90
18126;DHT22;53956;52.442;13.284;2023-04-24T03:16:36;16.20;99.90
18126;DHT22;53956;52.442;13.284;2023-04-24T03:19:03;16.20;99.90
18126;DHT22;53956;52.442;13.284;2023-04-24T03:21:32;16.20;99.90
18126;DHT22;53956;52.442;13.284;2023-04-24T03:24:02;16.20;99.90
18126;DHT22;53956;52.442;13.284;2023-04-24T03:26:29;16.30;99.90
18126;DHT22;53956;52.442;13.284;2023-04-24T03:29:13;16.20;99.90
18126;DHT22;53956;52.442;13.284;2023-04-24T03:31:40;16.30;99.90
18126;DHT22;53956;52.442;13.284;2023-04-24T03:34:07;16.20;99.90
18126;DHT22;53956;52.442;13.284;2023-04-24T03:36:35;16.30;99.90
18126;DHT22;53956;52.442;13.284;2023-04-24T03:39:04;16.30;99.90
18126;DHT22;53956;52.442;13.284;2023-04-24T03:41:33;16.20;99.90
18126;DHT22;53956;52.442;13.284;2023-04-24T03:44:09;16.20;99.90
18126;DHT22;53956;52.442;13.284;2023-04-24T03:46:36;16.20;99.90
18126;DHT22;53956;52.442;13.284;2023-04-24T03:49:03;16.30;99.90
18126;DHT22;53956;52.442;13.284;2023-04-24T03:51:36;16.30;99.90
18126;DHT22;53956;52.442;13.284;2023-04-24T03:54:13;16.30;99.90
18126;DHT22;53956;52.442;13.284;2023-04-24T03:56:40;16.30;99.90
18126;DHT22;53956;52.442;13.284;2023-04-24T03:59:07;16.20;99.90
18126;DHT22;53956;52.442;13.284;2023-04-24T04:01:36;16.30;99.90
18126;DHT22;53956;52.442;13.284;2023-04-24T04:04:12;16.30;99.90
18126;DHT22;53956;52.442;13.284;2023-04-24T04:06:39;16.30;99.90
18126;DHT22;53956;52.442;13.284;2023-04-24T04:09:06;16.40;99.90
18126;DHT22;53956;52.442;13.284;2023-04-24T04:11:37;16.30;99.90
18126;DHT22;53956;52.442;13.284;2023-04-24T04:14:03;16.20;99.90
18126;DHT22;53956;52.442;13.284;2023-04-24T04:16:32;16.40;99.90
18126;DHT22;53956;52.442;13.284;2023-04-24T04:19:02;16.30;99.90
18126;DHT22;53956;52.442;13.284;2023-04-24T04:21:29;16.30;99.90
18126;DHT22;53956;52.442;13.284;2023-04-24T04:24:08;16.30;99.90
18126;DHT22;53956;52.442;13.284;2023-04-24T04:26:39;16.30;99.90
18126;DHT22;53956;52.442;13.284;2023-04-24T04:29:09;16.30;99.90
18126;DHT22;53956;52.442;13.284;2023-04-24T04:31:39;16.40;99.90
18126;DHT22;53956;52.442;13.284;2023-04-24T04:34:10;16.40;99.90
18126;DHT22;53956;52.442;13.284;2023-04-24T04:36:37;16.40;99.90
18126;DHT22;53956;52.442;13.284;2023-04-24T04:39:21;16.30;99.90
18126;DHT22;53956;52.442;13.284;2023-04-24T04:41:57;16.40;99.90
18126;DHT22;53956;52.442;13.284;2023-04-24T04:44:30;16.30;99.90
18126;DHT22;53956;52.442;13.284;2023-04-24T04:46:59;16.40;99.90
18126;DHT22;53956;52.442;13.284;2023-04-24T04:49:29;16.40;99.90
18126;DHT22;53956;52.442;13.284;2023-04-24T04:51:56;16.40;99.90
18126;DHT22;53956;52.442;13.284;2023-04-24T04:54:25;16.40;99.90
18126;DHT22;53956;52.442;13.284;2023-04-24T04:56:51;16.40;99.90
18126;DHT22;53956;52.442;13.284;2023-04-24T04:59:20;16.50;99.90
18126;DHT22;53956;52.442;13.284;2023-04-24T05:01:50;16.50;99.90
18126;DHT22;53956;52.442;13.284;2023-04-24T05:04:16;16.40;99.90
18126;DHT22;53956;52.442;13.284;2023-04-24T05:06:43;16.40;99.90
18126;DHT22;53956;52.442;13.284;2023-04-24T05:09:10;16.60;99.90
18126;DHT22;53956;52.442;13.284;2023-04-24T05:11:48;16.60;99.90
18126;DHT22;53956;52.442;13.284;2023-04-24T05:14:16;16.60;99.90
18126;DHT22;53956;52.442;13.284;2023-04-24T05:16:45;16.70;99.90
18126;DHT22;53956;52.442;13.284;2023-04-24T05:19:13;16.70;99.90
18126;DHT22;53956;52.442;13.284;2023-04-24T05:21:41;16.80;99.90
18126;DHT22;53956;52.442;13.284;2023-04-24T05:24:09;17.10;99.90
18126;DHT22;53956;52.442;13.284;2023-04-24T05:27:02;17.40;99.90
18126;DHT22;53956;52.442;13.284;2023-04-24T05:29:34;18.00;99.90
18126;DHT22;53956;52.442;13.284;2023-04-24T05:32:04;18.00;99.30
18126;DHT22;53956;52.442;13.284;2023-04-24T05:34:31;18.00;99.30
18126;DHT22;53956;52.442;13.284;2023-04-24T05:36:58;18.70;96.40
18126;DHT22;53956;52.442;13.284;2023-04-24T05:39:25;19.30;93.90
18126;DHT22;53956;52.442;13.284;2023-04-24T05:41:53;19.20;93.90
18126;DHT22;53956;52.442;13.284;2023-04-24T05:44:20;19.20;93.70
18126;DHT22;53956;52.442;13.284;2023-04-24T05:46:47;19.30;92.90
18126;DHT22;53956;52.442;13.284;2023-04-24T05:49:15;19.50;92.20
18126;DHT22;53956;52.442;13.284;2023-04-24T05:51:42;19.70;91.70
18126;DHT22;53956;52.442;13.284;2023-04-24T05:54:09;19.60;92.00
18126;DHT22;53956;52.442;13.284;2023-04-24T05:56:37;20.20;90.50
18126;DHT22;53956;52.442;13.284;2023-04-24T05:59:05;21.10;86.30
18126;DHT22;53956;52.442;13.284;2023-04-24T06:01:32;21.30;86.00
18126;DHT22;53956;52.442;13.284;2023-04-24T06:04:07;21.50;84.60
18126;DHT22;53956;52.442;13.284;2023-04-24T06:06:36;21.50;84.90
18126;DHT22;53956;52.442;13.284;2023-04-24T06:09:03;21.70;83.10
18126;DHT22;53956;52.442;13.284;2023-04-24T06:11:30;21.60;83.80
18126;DHT22;53956;52.442;13.284;2023-04-24T06:13:58;21.20;84.20
18126;DHT22;53956;52.442;13.284;2023-04-24T06:16:45;21.30;84.50
18126;DHT22;53956;52.442;13.284;2023-04-24T06:19:22;21.50;84.80
18126;DHT22;53956;52.442;13.284;2023-04-24T06:21:50;22.10;82.00
18126;DHT22;53956;52.442;13.284;2023-04-24T06:24:16;23.00;80.30
18126;DHT22;53956;52.442;13.284;2023-04-24T06:26:43;23.80;76.70
18126;DHT22;53956;52.442;13.284;2023-04-24T06:29:09;24.80;73.90
18126;DHT22;53956;52.442;13.284;2023-04-24T06:31:36;25.50;71.10
18126;DHT22;53956;52.442;13.284;2023-04-24T06:34:03;26.00;68.10
18126;DHT22;53956;52.442;13.284;2023-04-24T06:36:30;25.40;68.30
18126;DHT22;53956;52.442;13.284;2023-04-24T06:38:59;24.90;69.60
18126;DHT22;53956;52.442;13.284;2023-04-24T06:41:26;25.00;69.50
18126;DHT22;53956;52.442;13.284;2023-04-24T06:43:52;25.00;69.90
18126;DHT22;53956;52.442;13.284;2023-04-24T06:46:19;25.00;68.00
18126;DHT22;53956;52.442;13.284;2023-04-24T06:48:47;24.70;69.50
18126;DHT22;53956;52.442;13.284;2023-04-24T06:51:14;25.10;69.20
18126;DHT22;53956;52.442;13.284;2023-04-24T06:53:40;25.20;68.20
18126;DHT22;53956;52.442;13.284;2023-04-24T06:56:08;24.70;68.20
18126;DHT22;53956;52.442;13.284;2023-04-24T06:58:35;24.10;71.20
18126;DHT22;53956;52.442;13.284;2023-04-24T07:01:02;23.50;74.70
18126;DHT22;53956;52.442;13.284;2023-04-24T07:03:28;23.50;74.60
18126;DHT22;53956;52.442;13.284;2023-04-24T07:05:55;23.00;76.40
18126;DHT22;53956;52.442;13.284;2023-04-24T07:08:23;23.10;76.70
18126;DHT22;53956;52.442;13.284;2023-04-24T07:10:51;23.40;75.70
18126;DHT22;53956;52.442;13.284;2023-04-24T07:13:18;23.70;72.00
18126;DHT22;53956;52.442;13.284;2023-04-24T07:15:45;23.80;70.60
18126;DHT22;53956;52.442;13.284;2023-04-24T07:18:14;23.50;71.30
18126;DHT22;53956;52.442;13.284;2023-04-24T07:20:41;23.50;72.50
18126;DHT22;53956;52.442;13.284;2023-04-24T07:23:07;23.60;71.90
18126;DHT22;53956;52.442;13.284;2023-04-24T07:25:34;23.90;69.40
18126;DHT22;53956;52.442;13.284;2023-04-24T07:28:01;24.30;69.20
18126;DHT22;53956;52.442;13.284;2023-04-24T07:30:29;24.50;66.60
18126;DHT22;53956;52.442;13.284;2023-04-24T07:32:55;24.30;64.60
18126;DHT22;53956;52.442;13.284;2023-04-24T07:35:22;24.30;65.00
18126;DHT22;53956;52.442;13.284;2023-04-24T07:37:51;24.40;64.30
18126;DHT22;53956;52.442;13.284;2023-04-24T07:40:18;24.10;65.50
18126;DHT22;53956;52.442;13.284;2023-04-24T07:42:44;24.50;66.10
18126;DHT22;53956;52.442;13.284;2023-04-24T07:45:13;24.60;66.00
18126;DHT22;53956;52.442;13.284;2023-04-24T07:47:42;24.20;66.60
18126;DHT22;53956;52.442;13.284;2023-04-24T07:50:11;24.10;69.80
18126;DHT22;53956;52.442;13.284;2023-04-24T07:52:37;24.50;68.80
18126;DHT22;53956;52.442;13.284;2023-04-24T07:55:05;24.00;67.50
18126;DHT22;53956;52.442;13.284;2023-04-24T07:57:32;24.10;67.10
18126;DHT22;53956;52.442;13.284;2023-04-24T07:59:59;24.10;66.50
18126;DHT22;53956;52.442;13.284;2023-04-24T08:02:25;24.50;67.40
18126;DHT22;53956;52.442;13.284;2023-04-24T08:04:54;24.20;66.00
18126;DHT22;53956;52.442;13.284;2023-04-24T08:07:20;24.50;64.70
18126;DHT22;53956;52.442;13.284;2023-04-24T08:09:47;24.40;63.60
18126;DHT22;53956;52.442;13.284;2023-04-24T08:12:13;23.80;64.30
18126;DHT22;53956;52.442;13.284;2023-04-24T08:14:40;23.30;67.70
18126;DHT22;53956;52.442;13.284;2023-04-24T08:17:07;23.20;67.30
18126;DHT22;53956;52.442;13.284;2023-04-24T08:19:33;23.30;67.50
18126;DHT22;53956;52.442;13.284;2023-04-24T08:22:01;23.30;66.90
18126;DHT22;53956;52.442;13.284;2023-04-24T08:24:29;23.10;66.40
18126;DHT22;53956;52.442;13.284;2023-04-24T08:26:56;22.80;67.40
18126;DHT22;53956;52.442;13.284;2023-04-24T08:29:23;22.50;68.20
18126;DHT22;53956;52.442;13.284;2023-04-24T08:31:50;22.20;69.60
18126;DHT22;53956;52.442;13.284;2023-04-24T08:34:17;22.30;68.50
18126;DHT22;53956;52.442;13.284;2023-04-24T08:36:43;21.90;69.10
18126;DHT22;53956;52.442;13.284;2023-04-24T08:39:11;21.90;70.00
18126;DHT22;53956;52.442;13.284;2023-04-24T08:41:39;21.60;71.10
18126;DHT22;53956;52.442;13.284;2023-04-24T08:44:09;21.70;73.10
18126;DHT22;53956;52.442;13.284;2023-04-24T08:46:37;21.50;74.30
18126;DHT22;53956;52.442;13.284;2023-04-24T08:49:03;21.50;73.70
18126;DHT22;53956;52.442;13.284;2023-04-24T08:51:31;21.50;73.70
18126;DHT22;53956;52.442;13.284;2023-04-24T08:53:58;21.60;73.90
18126;DHT22;53956;52.442;13.284;2023-04-24T08:56:26;21.50;74.10
18126;DHT22;53956;52.442;13.284;2023-04-24T08:58:55;21.60;74.20
18126;DHT22;53956;52.442;13.284;2023-04-24T09:01:24;21.20;75.70
18126;DHT22;53956;52.442;13.284;2023-04-24T09:03:51;21.40;75.50
18126;DHT22;53956;52.442;13.284;2023-04-24T09:06:21;21.30;75.70
18126;DHT22;53956;52.442;13.284;2023-04-24T09:08:51;21.10;75.90
18126;DHT22;53956;52.442;13.284;2023-04-24T09:11:21;20.70;78.20
18126;DHT22;53956;52.442;13.284;2023-04-24T09:13:51;21.00;77.20
18126;DHT22;53956;52.442;13.284;2023-04-24T09:16:18;20.60;80.50
18126;DHT22;53956;52.442;13.284;2023-04-24T09:18:45;20.60;80.10
18126;DHT22;53956;52.442;13.284;2023-04-24T09:21:12;20.60;80.80
18126;DHT22;53956;52.442;13.284;2023-04-24T09:23:40;20.70;80.30
18126;DHT22;53956;52.442;13.284;2023-04-24T09:26:09;20.60;79.90
18126;DHT22;53956;52.442;13.284;2023-04-24T09:28:37;20.50;81.00
18126;DHT22;53956;52.442;13.284;2023-04-24T09:31:08;20.70;79.70
18126;DHT22;53956;52.442;13.284;2023-04-24T09:33:36;20.80;79.70
18126;DHT22;53956;52.442;13.284;2023-04-24T09:36:03;20.60;78.30
18126;DHT22;53956;52.442;13.284;2023-04-24T09:38:34;20.30;79.00
18126;DHT22;53956;52.442;13.284;2023-04-24T09:41:02;20.50;79.30
18126;DHT22;53956;52.442;13.284;2023-04-24T09:43:29;20.80;79.10
18126;DHT22;53956;52.442;13.284;2023-04-24T09:45:56;20.70;78.00
18126;DHT22;53956;52.442;13.284;2023-04-24T09:48:31;20.60;79.90
18126;DHT22;53956;52.442;13.284;2023-04-24T09:50:59;20.50;79.50
18126;DHT22;53956;52.442;13.284;2023-04-24T09:53:27;20.90;78.40
18126;DHT22;53956;52.442;13.284;2023-04-24T09:55:54;20.60;78.70
18126;DHT22;53956;52.442;13.284;2023-04-24T09:58:25;20.30;79.10
18126;DHT22;53956;52.442;13.284;2023-04-24T10:00:53;20.30;79.70
18126;DHT22;53956;52.442;13.284;2023-04-24T10:03:24;20.50;78.70
18126;DHT22;53956;52.442;13.284;2023-04-24T10:05:52;20.40;80.40
18126;DHT22;53956;52.442;13.284;2023-04-24T10:08:20;20.50;79.80
18126;DHT22;53956;52.442;13.284;2023-04-24T10:10:47;20.60;80.50
18126;DHT22;53956;52.442;13.284;2023-04-24T10:13:15;20.50;78.40
18126;DHT22;53956;52.442;13.284;2023-04-24T10:15:42;20.10;80.10
18126;DHT22;53956;52.442;13.284;2023-04-24T10:18:09;20.30;81.00
18126;DHT22;53956;52.442;13.284;2023-04-24T10:20:38;20.40;79.90
18126;DHT22;53956;52.442;13.284;2023-04-24T10:23:06;20.40;80.60
18126;DHT22;53956;52.442;13.284;2023-04-24T10:25:35;20.30;79.50
18126;DHT22;53956;52.442;13.284;2023-04-24T10:28:03;20.20;80.40
18126;DHT22;53956;52.442;13.284;2023-04-24T10:30:31;19.90;79.80
18126;DHT22;53956;52.442;13.284;2023-04-24T10:33:00;19.90;80.20
18126;DHT22;53956;52.442;13.284;2023-04-24T10:35:30;19.90;80.40
18126;DHT22;53956;52.442;13.284;2023-04-24T10:37:59;20.00;81.10
18126;DHT22;53956;52.442;13.284;2023-04-24T10:40:31;19.50;80.10
18126;DHT22;53956;52.442;13.284;2023-04-24T10:42:58;19.60;81.10
18126;DHT22;53956;52.442;13.284;2023-04-24T10:45:25;19.60;80.60
18126;DHT22;53956;52.442;13.284;2023-04-24T10:47:56;19.40;81.50
18126;DHT22;53956;52.442;13.284;2023-04-24T10:50:23;19.40;81.60
18126;DHT22;53956;52.442;13.284;2023-04-24T10:52:51;19.40;81.60
18126;DHT22;53956;52.442;13.284;2023-04-24T10:55:46;19.80;81.30
18126;DHT22;53956;52.442;13.284;2023-04-24T10:58:13;20.00;81.10
18126;DHT22;53956;52.442;13.284;2023-04-24T11:00:43;20.00;80.70
18126;DHT22;53956;52.442;13.284;2023-04-24T11:03:24;20.20;79.90
18126;DHT22;53956;52.442;13.284;2023-04-24T11:05:54;20.40;80.00
18126;DHT22;53956;52.442;13.284;2023-04-24T11:08:23;20.50;79.50
18126;DHT22;53956;52.442;13.284;2023-04-24T11:10:58;20.50;79.50
18126;DHT22;53956;52.442;13.284;2023-04-24T11:13:25;20.50;79.50
18126;DHT22;53956;52.442;13.284;2023-04-24T11:16:14;20.40;79.60
18126;DHT22;53956;52.442;13.284;2023-04-24T11:18:42;20.50;79.90
18126;DHT22;53956;52.442;13.284;2023-04-24T11:21:12;20.40;78.90
18126;DHT22;53956;52.442;13.284;2023-04-24T11:23:39;20.50;79.40
18126;DHT22;53956;52.442;13.284;2023-04-24T11:26:11;20.40;79.90
18126;DHT22;53956;52.442;13.284;2023-04-24T11:28:45;20.40;79.00
18126;DHT22;53956;52.442;13.284;2023-04-24T11:31:34;19.90;81.70
18126;DHT22;53956;52.442;13.284;2023-04-24T11:34:08;19.50;83.60
18126;DHT22;53956;52.442;13.284;2023-04-24T11:36:36;19.50;84.10
18126;DHT22;53956;52.442;13.284;2023-04-24T11:39:03;19.50;85.40
18126;DHT22;53956;52.442;13.284;2023-04-24T11:41:31;19.60;85.30
18126;DHT22;53956;52.442;13.284;2023-04-24T11:43:58;19.70;85.50
18126;DHT22;53956;52.442;13.284;2023-04-24T11:46:27;19.60;86.60
18126;DHT22;53956;52.442;13.284;2023-04-24T11:48:55;19.60;86.50
18126;DHT22;53956;52.442;13.284;2023-04-24T11:51:22;19.80;86.40
18126;DHT22;53956;52.442;13.284;2023-04-24T11:53:49;19.80;85.70
18126;DHT22;53956;52.442;13.284;2023-04-24T11:56:17;19.90;86.70
18126;DHT22;53956;52.442;13.284;2023-04-24T11:58:45;19.90;85.30
18126;DHT22;53956;52.442;13.284;2023-04-24T12:01:13;19.80;85.10
18126;DHT22;53956;52.442;13.284;2023-04-24T12:03:39;19.80;84.10
18126;DHT22;53956;52.442;13.284;2023-04-24T12:06:09;19.70;83.30
18126;DHT22;53956;52.442;13.284;2023-04-24T12:08:37;19.70;84.40
18126;DHT22;53956;52.442;13.284;2023-04-24T12:11:05;19.80;83.40
18126;DHT22;53956;52.442;13.284;2023-04-24T12:13:33;20.00;84.00
18126;DHT22;53956;52.442;13.284;2023-04-24T12:16:03;20.20;83.80
18126;DHT22;53956;52.442;13.284;2023-04-24T12:18:29;20.30;84.00
18126;DHT22;53956;52.442;13.284;2023-04-24T12:21:14;20.30;82.50
18126;DHT22;53956;52.442;13.284;2023-04-24T12:23:43;20.20;70.40
18126;DHT22;53956;52.442;13.284;2023-04-24T12:26:09;20.00;66.60
18126;DHT22;53956;52.442;13.284;2023-04-24T12:28:37;20.00;67.30
18126;DHT22;53956;52.442;13.284;2023-04-24T12:31:06;19.90;67.50
18126;DHT22;53956;52.442;13.284;2023-04-24T12:33:33;20.20;68.10
18126;DHT22;53956;52.442;13.284;2023-04-24T12:36:00;20.40;65.80
18126;DHT22;53956;52.442;13.284;2023-04-24T12:38:28;20.70;63.30
18126;DHT22;53956;52.442;13.284;2023-04-24T12:41:03;20.90;62.80
18126;DHT22;53956;52.442;13.284;2023-04-24T12:43:30;20.80;62.00
18126;DHT22;53956;52.442;13.284;2023-04-24T12:45:57;20.70;62.70
18126;DHT22;53956;52.442;13.284;2023-04-24T12:48:25;20.70;63.70
18126;DHT22;53956;52.442;13.284;2023-04-24T12:50:52;20.60;62.00
18126;DHT22;53956;52.442;13.284;2023-04-24T12:53:19;20.40;61.10
18126;DHT22;53956;52.442;13.284;2023-04-24T12:55:46;20.40;60.50
18126;DHT22;53956;52.442;13.284;2023-04-24T12:58:18;20.50;61.80
18126;DHT22;53956;52.442;13.284;2023-04-24T13:00:45;20.40;61.40
18126;DHT22;53956;52.442;13.284;2023-04-24T13:03:12;20.60;62.70
18126;DHT22;53956;52.442;13.284;2023-04-24T13:05:41;20.60;61.30
18126;DHT22;53956;52.442;13.284;2023-04-24T13:08:08;20.80;63.00
18126;DHT22;53956;52.442;13.284;2023-04-24T13:10:35;20.80;61.70
18126;DHT22;53956;52.442;13.284;2023-04-24T13:13:01;20.80;61.00
18126;DHT22;53956;52.442;13.284;2023-04-24T13:15:29;20.60;60.40
18126;DHT22;53956;52.442;13.284;2023-04-24T13:17:55;20.60;60.40
18126;DHT22;53956;52.442;13.284;2023-04-24T13:20:22;20.50;60.20
18126;DHT22;53956;52.442;13.284;2023-04-24T13:22:50;20.30;60.70
18126;DHT22;53956;52.442;13.284;2023-04-24T13:25:16;20.50;58.90
18126;DHT22;53956;52.442;13.284;2023-04-24T13:27:43;20.50;58.00
18126;DHT22;53956;52.442;13.284;2023-04-24T13:30:11;20.30;57.40
18126;DHT22;53956;52.442;13.284;2023-04-24T13:32:37;20.10;58.90
18126;DHT22;53956;52.442;13.284;2023-04-24T13:35:05;20.00;59.10
18126;DHT22;53956;52.442;13.284;2023-04-24T13:37:31;20.10;59.60
18126;DHT22;53956;52.442;13.284;2023-04-24T13:39:59;20.30;59.10
18126;DHT22;53956;52.442;13.284;2023-04-24T13:42:26;20.30;59.10
18126;DHT22;53956;52.442;13.284;2023-04-24T13:44:53;20.30;58.30
18126;DHT22;53956;52.442;13.284;2023-04-24T13:47:19;20.00;56.90
18126;DHT22;53956;52.442;13.284;2023-04-24T13:49:46;19.90;58.00
18126;DHT22;53956;52.442;13.284;2023-04-24T13:52:13;19.90;58.90
18126;DHT22;53956;52.442;13.284;2023-04-24T13:54:40;19.90;59.10
18126;DHT22;53956;52.442;13.284;2023-04-24T13:57:08;20.00;61.00
18126;DHT22;53956;52.442;13.284;2023-04-24T13:59:34;20.20;61.30
18126;DHT22;53956;52.442;13.284;2023-04-24T14:02:02;20.30;61.10
18126;DHT22;53956;52.442;13.284;2023-04-24T14:04:29;20.40;61.30
18126;DHT22;53956;52.442;13.284;2023-04-24T14:06:55;20.50;60.30
18126;DHT22;53956;52.442;13.284;2023-04-24T14:09:22;20.70;60.90
18126;DHT22;53956;52.442;13.284;2023-04-24T14:11:49;20.80;60.40
18126;DHT22;53956;52.442;13.284;2023-04-24T14:14:17;20.70;59.90
18126;DHT22;53956;52.442;13.284;2023-04-24T14:16:43;20.60;59.30
18126;DHT22;53956;52.442;13.284;2023-04-24T14:19:10;20.40;58.60
18126;DHT22;53956;52.442;13.284;2023-04-24T14:21:37;20.40;57.90
18126;DHT22;53956;52.442;13.284;2023-04-24T14:24:05;20.20;56.90
18126;DHT22;53956;52.442;13.284;2023-04-24T14:26:31;20.20;60.20
18126;DHT22;53956;52.442;13.284;2023-04-24T14:28:58;20.30;59.60
18126;DHT22;53956;52.442;13.284;2023-04-24T14:31:26;20.20;59.70
18126;DHT22;53956;52.442;13.284;2023-04-24T14:33:53;20.20;59.70
18126;DHT22;53956;52.442;13.284;2023-04-24T14:36:20;20.40;59.70
18126;DHT22;53956;52.442;13.284;2023-04-24T14:38:46;20.30;58.00
18126;DHT22;53956;52.442;13.284;2023-04-24T14:41:13;20.30;59.00
18126;DHT22;53956;52.442;13.284;2023-04-24T14:43:40;20.20;60.50
18126;DHT22;53956;52.442;13.284;2023-04-24T14:46:07;20.30;59.80
18126;DHT22;53956;52.442;13.284;2023-04-24T14:48:35;20.20;59.60
18126;DHT22;53956;52.442;13.284;2023-04-24T14:51:01;20.20;58.40
18126;DHT22;53956;52.442;13.284;2023-04-24T14:53:29;20.10;58.40
18126;DHT22;53956;52.442;13.284;2023-04-24T14:55:55;20.00;61.20
18126;DHT22;53956;52.442;13.284;2023-04-24T14:58:22;19.90;59.90
18126;DHT22;53956;52.442;13.284;2023-04-24T15:00:49;19.90;60.30
18126;DHT22;53956;52.442;13.284;2023-04-24T15:03:18;20.00;60.30
18126;DHT22;53956;52.442;13.284;2023-04-24T15:05:47;20.00;60.10
18126;DHT22;53956;52.442;13.284;2023-04-24T15:08:14;20.20;59.70
18126;DHT22;53956;52.442;13.284;2023-04-24T15:10:40;20.10;59.80
18126;DHT22;53956;52.442;13.284;2023-04-24T15:13:07;20.00;59.10
18126;DHT22;53956;52.442;13.284;2023-04-24T15:15:34;19.90;59.30
18126;DHT22;53956;52.442;13.284;2023-04-24T15:18:01;19.70;58.90
18126;DHT22;53956;52.442;13.284;2023-04-24T15:20:27;19.70;59.80